Time;durP1;ratioP1;P1;durP2;ratioP2;P2;SDS_P1;SDS_P2;PMS_P1;PMS_P2;Temp;Humidity;BMP_temperature;BMP_pressure;BME280_temperature;BME280_humidity;BME280_pressure;Samples;Min_cycle;Max_cycle;Signal;HPM_P1;HPM_P2
2023/10/14 00:01:24;;;;;;;;;;;16.10;99.90;;;;;;4961273;28;19910;-72
2023/10/14 00:03:50;;;;;;;;;;;16.00;99.90;;;;;;4964019;28;19909;-71
2023/10/14 00:06:17;;;;;;;;;;;16.00;99.90;;;;;;4966241;28;19910;-71
2023/10/14 00:08:59;;;;;;;;;;;16.00;99.90;;;;;;4958292;28;19922;-71
2023/10/14 00:11:28;;;;;;;;;;;16.00;99.90;;;;;;4962997;28;20452;-71
2023/10/14 00:13:56;;;;;;;;;;;15.90;99.90;;;;;;4959837;28;19914;-71
2023/10/14 00:18:49;;;;;;;;;;;15.70;99.90;;;;;;4959987;28;19910;-71
2023/10/14 00:21:14;;;;;;;;;;;15.70;99.90;;;;;;4965479;28;20262;-71
2023/10/14 00:23:40;;;;;;;;;;;15.60;99.90;;;;;;4961460;28;19915;-71
2023/10/14 00:26:16;;;;;;;;;;;15.60;99.90;;;;;;4963060;28;20411;-71
2023/10/14 00:28:45;;;;;;;;;;;15.60;99.90;;;;;;4963170;28;19925;-72
2023/10/14 00:31:12;;;;;;;;;;;15.60;99.90;;;;;;4964300;28;20001;-71
2023/10/14 00:33:38;;;;;;;;;;;15.60;99.90;;;;;;4964319;28;19918;-71
2023/10/14 00:36:08;;;;;;;;;;;15.50;99.90;;;;;;4957532;28;20385;-71
2023/10/14 00:38:34;;;;;;;;;;;15.50;99.90;;;;;;4961637;28;19917;-75
2023/10/14 00:41:01;;;;;;;;;;;15.50;99.90;;;;;;4964356;28;19914;-75
2023/10/14 00:43:26;;;;;;;;;;;15.50;99.90;;;;;;4959643;28;19932;-75
2023/10/14 00:45:52;;;;;;;;;;;15.50;99.90;;;;;;4965487;28;20012;-76
2023/10/14 00:48:27;;;;;;;;;;;15.40;99.90;;;;;;4962179;28;19914;-75
2023/10/14 00:50:57;;;;;;;;;;;15.40;99.90;;;;;;4965488;28;19960;-76
2023/10/14 00:53:23;;;;;;;;;;;15.40;99.90;;;;;;4966448;28;20501;-75
2023/10/14 00:55:54;;;;;;;;;;;15.40;99.90;;;;;;4961312;28;19964;-74
2023/10/14 00:58:23;;;;;;;;;;;15.40;99.90;;;;;;4963948;28;20012;-74
2023/10/14 01:00:58;;;;;;;;;;;15.40;99.90;;;;;;4958352;28;20008;-72
2023/10/14 01:03:31;;;;;;;;;;;15.40;99.90;;;;;;4963812;28;19961;-72
2023/10/14 01:05:57;;;;;;;;;;;15.30;99.90;;;;;;4961749;28;19973;-72
2023/10/14 01:08:24;;;;;;;;;;;15.30;99.90;;;;;;4962215;28;19918;-72
2023/10/14 01:10:51;;;;;;;;;;;15.20;99.90;;;;;;4963353;28;20741;-72
2023/10/14 01:13:23;;;;;;;;;;;15.20;99.90;;;;;;4959056;28;19933;-72
2023/10/14 01:15:58;;;;;;;;;;;15.20;99.90;;;;;;4969214;28;19913;-72
2023/10/14 01:18:23;;;;;;;;;;;15.10;99.90;;;;;;4963426;28;19957;-73
2023/10/14 01:20:49;;;;;;;;;;;15.10;99.90;;;;;;4964955;28;19949;-73
2023/10/14 01:23:16;;;;;;;;;;;15.10;99.90;;;;;;4960767;28;20292;-72
2023/10/14 01:25:50;;;;;;;;;;;15.10;99.90;;;;;;4963580;28;19917;-72
2023/10/14 01:28:29;;;;;;;;;;;15.00;99.90;;;;;;4959157;28;19914;-73
2023/10/14 01:30:55;;;;;;;;;;;15.00;99.90;;;;;;4963222;28;20005;-70
2023/10/14 01:33:25;;;;;;;;;;;15.00;99.90;;;;;;4960618;28;19964;-69
2023/10/14 01:35:51;;;;;;;;;;;15.00;99.90;;;;;;4963750;28;19949;-69
2023/10/14 01:38:17;;;;;;;;;;;15.00;99.90;;;;;;4963236;28;20312;-70
2023/10/14 01:40:49;;;;;;;;;;;15.00;99.90;;;;;;4967270;28;19922;-70
2023/10/14 01:43:15;;;;;;;;;;;15.00;99.90;;;;;;4965552;28;19956;-69
2023/10/14 01:45:50;;;;;;;;;;;15.00;99.90;;;;;;4962851;28;19922;-69
2023/10/14 01:48:20;;;;;;;;;;;15.00;99.90;;;;;;4962114;28;19952;-69
2023/10/14 01:50:47;;;;;;;;;;;15.00;99.90;;;;;;4965175;28;19913;-69
2023/10/14 01:53:21;;;;;;;;;;;15.00;99.90;;;;;;4963553;28;20554;-69
2023/10/14 01:55:47;;;;;;;;;;;15.00;99.90;;;;;;4957743;28;19910;-69
2023/10/14 01:58:22;;;;;;;;;;;15.00;99.90;;;;;;4962837;28;19924;-70
2023/10/14 02:03:41;;;;;;;;;;;14.90;99.90;;;;;;4957496;28;20459;-69
2023/10/14 02:08:51;;;;;;;;;;;14.80;99.90;;;;;;4962339;28;20013;-72
2023/10/14 02:11:20;;;;;;;;;;;14.80;99.90;;;;;;4961447;28;20540;-72
2023/10/14 02:13:47;;;;;;;;;;;14.80;99.90;;;;;;4958066;28;20293;-72
2023/10/14 02:16:13;;;;;;;;;;;14.80;99.90;;;;;;4961969;28;19918;-72
2023/10/14 02:18:38;;;;;;;;;;;14.80;99.90;;;;;;4963538;28;19914;-72
2023/10/14 02:21:05;;;;;;;;;;;14.80;99.90;;;;;;4967466;28;19968;-72
2023/10/14 02:23:49;;;;;;;;;;;14.70;99.90;;;;;;4956767;28;19914;-72
2023/10/14 02:26:33;;;;;;;;;;;14.80;99.90;;;;;;4963755;28;19957;-72
2023/10/14 02:28:59;;;;;;;;;;;14.80;99.90;;;;;;4962055;28;19918;-72
2023/10/14 02:33:54;;;;;;;;;;;14.70;99.90;;;;;;4959965;28;19914;-72
2023/10/14 02:36:20;;;;;;;;;;;14.70;99.90;;;;;;4961405;28;19921;-72
2023/10/14 02:38:53;;;;;;;;;;;14.70;99.90;;;;;;4956958;28;20436;-71
2023/10/14 02:41:20;;;;;;;;;;;14.70;99.90;;;;;;4961040;28;19964;-72
2023/10/14 02:43:49;;;;;;;;;;;14.60;99.90;;;;;;4962076;28;20297;-71
2023/10/14 02:46:20;;;;;;;;;;;14.60;99.90;;;;;;4960047;28;20361;-71
2023/10/14 02:48:53;;;;;;;;;;;14.60;99.90;;;;;;4961516;28;19961;-71
2023/10/14 02:51:29;;;;;;;;;;;14.60;99.90;;;;;;4958843;28;19910;-71
2023/10/14 02:53:56;;;;;;;;;;;14.60;99.90;;;;;;4958578;28;19937;-72
2023/10/14 02:56:33;;;;;;;;;;;14.50;99.90;;;;;;4961241;28;19977;-71
2023/10/14 02:58:59;;;;;;;;;;;14.40;99.90;;;;;;4961618;28;19910;-72
2023/10/14 03:01:31;;;;;;;;;;;14.40;99.90;;;;;;4961413;28;19925;-71
2023/10/14 03:03:57;;;;;;;;;;;14.40;99.90;;;;;;4957883;28;19914;-72
2023/10/14 03:06:23;;;;;;;;;;;14.40;99.90;;;;;;4961174;28;19914;-72
2023/10/14 03:08:57;;;;;;;;;;;14.50;99.90;;;;;;4956295;28;19921;-72
2023/10/14 03:11:26;;;;;;;;;;;14.50;99.90;;;;;;4960733;28;20354;-72
2023/10/14 03:13:53;;;;;;;;;;;14.50;99.90;;;;;;4962064;28;20378;-72
2023/10/14 03:16:18;;;;;;;;;;;14.60;99.90;;;;;;4938391;28;19949;-72
2023/10/14 03:18:44;;;;;;;;;;;14.50;99.90;;;;;;4961315;28;19957;-71
2023/10/14 03:21:21;;;;;;;;;;;14.50;99.90;;;;;;4961943;28;19921;-71
2023/10/14 03:23:47;;;;;;;;;;;14.50;99.90;;;;;;4963126;28;19918;-71
2023/10/14 03:26:13;;;;;;;;;;;14.50;99.90;;;;;;4961428;28;19924;-71
2023/10/14 03:28:39;;;;;;;;;;;14.40;99.90;;;;;;4954327;28;19957;-72
2023/10/14 03:31:07;;;;;;;;;;;14.30;99.90;;;;;;4961778;28;19965;-72
2023/10/14 03:33:42;;;;;;;;;;;14.30;99.90;;;;;;4962664;28;19915;-72
2023/10/14 03:36:08;;;;;;;;;;;14.30;99.90;;;;;;4961765;28;19914;-72
2023/10/14 03:41:03;;;;;;;;;;;14.30;99.90;;;;;;4963773;28;19953;-72
2023/10/14 03:43:44;;;;;;;;;;;14.30;99.90;;;;;;4965686;28;19926;-71
2023/10/14 03:46:12;;;;;;;;;;;14.20;99.90;;;;;;4964335;28;20365;-71
2023/10/14 03:48:48;;;;;;;;;;;14.30;99.90;;;;;;4959726;28;19918;-71
2023/10/14 03:51:23;;;;;;;;;;;14.10;99.90;;;;;;4964836;28;19917;-71
2023/10/14 03:53:52;;;;;;;;;;;14.00;99.90;;;;;;4959399;28;19972;-71
2023/10/14 03:56:18;;;;;;;;;;;14.00;99.90;;;;;;4966619;28;19953;-71
2023/10/14 03:58:46;;;;;;;;;;;14.00;99.90;;;;;;4965609;28;20407;-72
2023/10/14 04:01:13;;;;;;;;;;;14.00;99.90;;;;;;4959261;28;20200;-72
2023/10/14 04:03:51;;;;;;;;;;;13.90;99.90;;;;;;4966005;28;19968;-72
2023/10/14 04:06:19;;;;;;;;;;;14.00;99.90;;;;;;4964149;28;20457;-72
2023/10/14 04:08:48;;;;;;;;;;;13.90;99.90;;;;;;4960287;28;19924;-72
2023/10/14 04:11:15;;;;;;;;;;;13.90;99.90;;;;;;4966830;28;19918;-71
2023/10/14 04:13:50;;;;;;;;;;;13.90;99.90;;;;;;4965524;28;20373;-71
2023/10/14 04:16:18;;;;;;;;;;;13.80;99.90;;;;;;4965312;28;20285;-72
2023/10/14 04:18:46;;;;;;;;;;;13.90;99.90;;;;;;4962953;28;19921;-72
2023/10/14 04:21:19;;;;;;;;;;;13.90;99.90;;;;;;4965692;28;20731;-71
2023/10/14 04:24:08;;;;;;;;;;;13.90;99.90;;;;;;4956311;28;19921;-71
2023/10/14 04:26:35;;;;;;;;;;;13.80;99.90;;;;;;4965243;28;19910;-71
2023/10/14 04:29:05;;;;;;;;;;;13.90;99.90;;;;;;4946794;28;20274;-72
2023/10/14 04:31:40;;;;;;;;;;;13.90;99.90;;;;;;4964979;28;19914;-71
2023/10/14 04:34:07;;;;;;;;;;;13.90;99.90;;;;;;4961346;28;19940;-71
2023/10/14 04:36:36;;;;;;;;;;;14.00;99.90;;;;;;4965319;28;19910;-71
2023/10/14 04:39:45;;;;;;;;;;;14.00;99.90;;;;;;4960014;28;19918;-71
2023/10/14 04:41:55;;;;;;;;;;;14.10;99.90;;;;;;4956551;28;20393;-71
2023/10/14 04:44:27;;;;;;;;;;;14.20;99.90;;;;;;4958697;28;19929;-71
2023/10/14 04:47:01;;;;;;;;;;;14.30;99.90;;;;;;4944019;28;19910;-71
2023/10/14 04:49:35;;;;;;;;;;;14.30;99.90;;;;;;4965238;28;19920;-72
2023/10/14 04:52:04;;;;;;;;;;;14.30;99.90;;;;;;4960963;28;19921;-72
2023/10/14 04:54:34;;;;;;;;;;;14.30;99.90;;;;;;4957305;28;19914;-71
2023/10/14 04:57:01;;;;;;;;;;;14.30;99.90;;;;;;4962985;28;19910;-72
2023/10/14 04:59:32;;;;;;;;;;;14.30;99.90;;;;;;4959809;28;19920;-71
2023/10/14 05:01:57;;;;;;;;;;;14.50;99.90;;;;;;4965352;28;20282;-69
2023/10/14 05:04:29;;;;;;;;;;;14.60;99.90;;;;;;4963984;28;20334;-69
2023/10/14 05:06:54;;;;;;;;;;;14.60;99.90;;;;;;4962677;28;19914;-70
2023/10/14 05:09:39;;;;;;;;;;;14.50;99.90;;;;;;4963595;28;20393;-69
2023/10/14 05:12:08;;;;;;;;;;;14.40;99.90;;;;;;4963752;28;19914;-69
2023/10/14 05:14:36;;;;;;;;;;;14.40;99.90;;;;;;4960143;28;20365;-71
2023/10/14 05:19:41;;;;;;;;;;;14.40;99.90;;;;;;4964715;28;19918;-71
2023/10/14 05:22:18;;;;;;;;;;;14.20;99.90;;;;;;4962052;28;19914;-72
2023/10/14 05:24:52;;;;;;;;;;;14.20;99.90;;;;;;4964803;28;20369;-71
2023/10/14 05:27:21;;;;;;;;;;;14.20;99.90;;;;;;4963512;28;20380;-71
2023/10/14 05:29:53;;;;;;;;;;;14.30;99.90;;;;;;4963453;28;19910;-71
2023/10/14 05:32:23;;;;;;;;;;;14.40;99.90;;;;;;4958601;28;19964;-71
2023/10/14 05:34:53;;;;;;;;;;;14.30;99.90;;;;;;4962452;28;19910;-71
2023/10/14 05:37:21;;;;;;;;;;;14.10;99.90;;;;;;4963123;28;19921;-71
2023/10/14 05:39:47;;;;;;;;;;;14.10;99.90;;;;;;4963049;28;19968;-71
2023/10/14 05:42:16;;;;;;;;;;;14.20;99.90;;;;;;4964543;28;19926;-71
2023/10/14 05:44:47;;;;;;;;;;;14.40;99.90;;;;;;4957651;28;19992;-71
2023/10/14 05:47:16;;;;;;;;;;;14.50;99.90;;;;;;4959212;28;21343;-71
2023/10/14 05:49:42;;;;;;;;;;;14.40;99.90;;;;;;4963773;28;19961;-71
2023/10/14 05:52:08;;;;;;;;;;;14.40;99.90;;;;;;4963138;28;19914;-72
2023/10/14 05:54:34;;;;;;;;;;;14.50;99.90;;;;;;4941346;28;20367;-71
2023/10/14 05:57:03;;;;;;;;;;;14.60;99.90;;;;;;4965488;28;20286;-71
2023/10/14 05:59:29;;;;;;;;;;;14.60;99.90;;;;;;4961055;28;20445;-72
2023/10/14 06:01:54;;;;;;;;;;;14.70;99.90;;;;;;4965511;28;19997;-71
2023/10/14 06:04:21;;;;;;;;;;;14.80;99.90;;;;;;4960234;28;19918;-71
2023/10/14 06:06:46;;;;;;;;;;;14.90;99.90;;;;;;4963876;28;20341;-71
2023/10/14 06:09:16;;;;;;;;;;;15.00;99.90;;;;;;4962458;28;20111;-71
2023/10/14 06:11:42;;;;;;;;;;;15.00;99.90;;;;;;4962030;28;19916;-71
2023/10/14 06:14:09;;;;;;;;;;;15.10;99.90;;;;;;4957837;28;20028;-72
2023/10/14 06:16:35;;;;;;;;;;;15.10;99.90;;;;;;4962171;28;19929;-71
2023/10/14 06:19:00;;;;;;;;;;;15.20;99.90;;;;;;4962898;28;19914;-72
2023/10/14 06:21:29;;;;;;;;;;;15.30;99.90;;;;;;4962219;28;19910;-72
2023/10/14 06:23:54;;;;;;;;;;;15.40;99.90;;;;;;4961875;28;19910;-71
2023/10/14 06:26:20;;;;;;;;;;;15.50;99.90;;;;;;4958361;28;19924;-72
2023/10/14 06:28:46;;;;;;;;;;;15.50;99.90;;;;;;4962998;28;19918;-71
2023/10/14 06:31:12;;;;;;;;;;;15.70;99.90;;;;;;4964124;28;20008;-72
2023/10/14 06:33:40;;;;;;;;;;;15.60;99.90;;;;;;4958157;28;20436;-71
2023/10/14 06:36:07;;;;;;;;;;;15.50;99.90;;;;;;4965220;28;19921;-73
2023/10/14 06:38:33;;;;;;;;;;;15.60;99.90;;;;;;4961137;28;20394;-73
2023/10/14 06:41:01;;;;;;;;;;;15.70;99.90;;;;;;4965505;28;20380;-72
2023/10/14 06:43:27;;;;;;;;;;;15.60;99.90;;;;;;4963446;28;19910;-72
2023/10/14 06:45:54;;;;;;;;;;;15.60;99.90;;;;;;4962555;28;20318;-72
2023/10/14 06:48:19;;;;;;;;;;;15.50;99.90;;;;;;4959866;28;19929;-74
2023/10/14 06:50:47;;;;;;;;;;;15.50;99.90;;;;;;4962134;28;19914;-75
2023/10/14 06:53:15;;;;;;;;;;;15.70;99.90;;;;;;4963062;28;19938;-75
2023/10/14 06:55:41;;;;;;;;;;;15.80;99.90;;;;;;4963021;28;20583;-73
2023/10/14 06:58:08;;;;;;;;;;;15.80;99.90;;;;;;4957957;28;19914;-74
2023/10/14 07:00:37;;;;;;;;;;;16.00;99.90;;;;;;4963338;28;19910;-75
2023/10/14 07:03:03;;;;;;;;;;;16.10;99.90;;;;;;4959105;28;20333;-74
2023/10/14 07:05:29;;;;;;;;;;;16.30;99.90;;;;;;4962956;28;20038;-74
2023/10/14 07:07:56;;;;;;;;;;;16.50;99.90;;;;;;4960365;28;20051;-73
2023/10/14 07:10:27;;;;;;;;;;;16.50;99.90;;;;;;4964360;28;19918;-73
2023/10/14 07:13:00;;;;;;;;;;;16.50;99.90;;;;;;4963262;28;20301;-73
2023/10/14 07:15:26;;;;;;;;;;;16.90;99.90;;;;;;4961266;28;19997;-74
2023/10/14 07:17:56;;;;;;;;;;;17.10;99.90;;;;;;4962421;28;20333;-74
2023/10/14 07:20:22;;;;;;;;;;;17.10;99.90;;;;;;4965997;28;20011;-75
2023/10/14 07:22:49;;;;;;;;;;;17.50;99.90;;;;;;4964089;28;19916;-65
2023/10/14 07:25:15;;;;;;;;;;;18.00;99.90;;;;;;4963872;28;19956;-66
2023/10/14 07:27:41;;;;;;;;;;;19.20;99.90;;;;;;4961519;28;19991;-66
2023/10/14 07:30:16;;;;;;;;;;;20.90;99.90;;;;;;4964229;28;19910;-66
2023/10/14 07:32:48;;;;;;;;;;;22.80;99.90;;;;;;4965156;28;19910;-67
2023/10/14 07:35:15;;;;;;;;;;;24.50;99.90;;;;;;4963731;28;19918;-64
2023/10/14 07:37:42;;;;;;;;;;;24.10;99.90;;;;;;4964358;28;20416;-67
2023/10/14 07:40:11;;;;;;;;;;;23.70;99.90;;;;;;4965308;28;19941;-67
2023/10/14 07:42:39;;;;;;;;;;;24.70;99.90;;;;;;4965129;28;19961;-66
2023/10/14 07:45:10;;;;;;;;;;;26.90;99.90;;;;;;4958064;28;20449;-69
2023/10/14 07:47:37;;;;;;;;;;;27.10;98.50;;;;;;4964837;28;20274;-68
2023/10/14 07:50:09;;;;;;;;;;;27.40;98.10;;;;;;4958861;28;19914;-68
2023/10/14 07:52:37;;;;;;;;;;;26.60;97.60;;;;;;4962033;28;19914;-69
2023/10/14 07:55:10;;;;;;;;;;;25.90;98.80;;;;;;4965200;28;20013;-68
2023/10/14 07:57:40;;;;;;;;;;;26.30;98.70;;;;;;4965739;28;20267;-65
2023/10/14 08:00:12;;;;;;;;;;;26.20;98.70;;;;;;4959415;28;19914;-65
2023/10/14 08:02:41;;;;;;;;;;;26.70;98.20;;;;;;4963965;28;19910;-66
2023/10/14 08:05:08;;;;;;;;;;;27.60;96.50;;;;;;4960781;28;20223;-66
2023/10/14 08:07:40;;;;;;;;;;;27.60;96.00;;;;;;4966800;28;20009;-79
2023/10/14 08:10:16;;;;;;;;;;;28.20;94.90;;;;;;4966740;28;19920;-77
2023/10/14 08:12:43;;;;;;;;;;;28.80;94.60;;;;;;4947515;28;20435;-77
2023/10/14 08:15:08;;;;;;;;;;;28.90;93.80;;;;;;4965772;28;19921;-75
2023/10/14 08:17:34;;;;;;;;;;;30.20;92.10;;;;;;4963028;28;20373;-75
2023/10/14 08:19:59;;;;;;;;;;;29.50;91.70;;;;;;4965499;28;20032;-74
2023/10/14 08:22:25;;;;;;;;;;;30.50;90.30;;;;;;4959697;28;20326;-74
2023/10/14 08:24:52;;;;;;;;;;;30.70;88.40;;;;;;4962836;28;20608;-74
2023/10/14 08:27:17;;;;;;;;;;;31.90;86.70;;;;;;4964376;28;19968;-75
2023/10/14 08:29:43;;;;;;;;;;;32.60;84.40;;;;;;4960272;28;19922;-72
2023/10/14 08:32:10;;;;;;;;;;;32.30;83.70;;;;;;4962788;28;19922;-74
2023/10/14 08:34:36;;;;;;;;;;;32.20;83.40;;;;;;4962639;28;20164;-73
2023/10/14 08:37:02;;;;;;;;;;;32.70;81.40;;;;;;4960645;28;19998;-71
2023/10/14 08:39:31;;;;;;;;;;;33.40;79.20;;;;;;4960584;28;19997;-73
2023/10/14 08:41:58;;;;;;;;;;;33.70;78.00;;;;;;4959166;28;19950;-73
2023/10/14 08:44:26;;;;;;;;;;;34.90;76.10;;;;;;4959685;28;19946;-72
2023/10/14 08:46:51;;;;;;;;;;;35.00;74.20;;;;;;4963325;28;19918;-73
2023/10/14 08:49:23;;;;;;;;;;;35.00;74.10;;;;;;4961210;28;19925;-72
2023/10/14 08:51:48;;;;;;;;;;;35.30;73.50;;;;;;4962064;28;19914;-74
2023/10/14 08:54:15;;;;;;;;;;;33.50;74.50;;;;;;4962601;28;19910;-73
2023/10/14 08:56:41;;;;;;;;;;;33.50;75.40;;;;;;4961090;28;19921;-75
2023/10/14 08:59:07;;;;;;;;;;;34.70;73.40;;;;;;4961028;28;19914;-76
2023/10/14 09:01:34;;;;;;;;;;;33.60;72.90;;;;;;4968590;28;20141;-75
2023/10/14 09:03:59;;;;;;;;;;;33.90;72.90;;;;;;4947486;28;19921;-72
2023/10/14 09:06:25;;;;;;;;;;;33.50;72.90;;;;;;4959883;28;19911;-75
2023/10/14 09:08:51;;;;;;;;;;;33.60;74.10;;;;;;4961474;28;20341;-76
2023/10/14 09:11:26;;;;;;;;;;;33.80;73.40;;;;;;4959231;28;20359;-75
2023/10/14 09:14:02;;;;;;;;;;;34.50;72.60;;;;;;4957947;28;20004;-75
2023/10/14 09:16:30;;;;;;;;;;;35.20;71.30;;;;;;4962435;28;19914;-72
2023/10/14 09:19:00;;;;;;;;;;;36.40;69.70;;;;;;4964189;28;19921;-73
2023/10/14 09:21:26;;;;;;;;;;;37.40;68.00;;;;;;4962162;28;19910;-73
2023/10/14 09:23:52;;;;;;;;;;;38.00;66.20;;;;;;4961784;28;19914;-72
2023/10/14 09:26:18;;;;;;;;;;;37.30;66.50;;;;;;4959698;28;19917;-75
2023/10/14 09:28:45;;;;;;;;;;;34.30;68.20;;;;;;4966978;28;19922;-73
2023/10/14 09:31:11;;;;;;;;;;;32.80;70.50;;;;;;4960541;28;20508;-74
2023/10/14 09:33:44;;;;;;;;;;;32.60;71.20;;;;;;4962704;28;19949;-73
2023/10/14 09:36:14;;;;;;;;;;;31.90;71.40;;;;;;4962960;28;20021;-73
2023/10/14 09:38:41;;;;;;;;;;;30.00;74.70;;;;;;4959138;28;20409;-72
2023/10/14 09:41:07;;;;;;;;;;;28.50;77.00;;;;;;4960127;28;19922;-73
2023/10/14 09:43:34;;;;;;;;;;;27.60;79.70;;;;;;4960970;28;19910;-73
2023/10/14 09:46:08;;;;;;;;;;;27.70;81.50;;;;;;4961647;28;19925;-80
2023/10/14 09:48:35;;;;;;;;;;;30.50;78.80;;;;;;4961309;28;20025;-73
2023/10/14 09:51:01;;;;;;;;;;;32.80;74.20;;;;;;4959922;28;19910;-72
2023/10/14 09:53:28;;;;;;;;;;;34.60;71.20;;;;;;4963349;28;19914;-73
2023/10/14 09:55:53;;;;;;;;;;;36.50;69.00;;;;;;4954283;28;19911;-72
2023/10/14 09:58:21;;;;;;;;;;;36.40;67.60;;;;;;4963866;28;20566;-73
2023/10/14 10:00:49;;;;;;;;;;;37.00;66.40;;;;;;4956759;28;20321;-70
2023/10/14 10:03:15;;;;;;;;;;;37.70;64.20;;;;;;4965107;28;19917;-71
2023/10/14 10:05:47;;;;;;;;;;;37.40;61.80;;;;;;4962148;28;19910;-71
2023/10/14 10:08:39;;;;;;;;;;;39.10;58.60;;;;;;4957830;28;20358;-71
2023/10/14 10:11:06;;;;;;;;;;;40.00;55.20;;;;;;4961409;28;19981;-71
2023/10/14 10:13:32;;;;;;;;;;;39.90;54.60;;;;;;4958453;28;20321;-69
2023/10/14 10:16:02;;;;;;;;;;;40.40;55.20;;;;;;4967762;28;19914;-71
2023/10/14 10:18:46;;;;;;;;;;;39.80;52.60;;;;;;4961635;28;19918;-72
2023/10/14 10:21:12;;;;;;;;;;;40.20;52.90;;;;;;4962626;28;20248;-70
2023/10/14 10:23:37;;;;;;;;;;;40.50;52.30;;;;;;4957670;28;20219;-71
2023/10/14 10:26:03;;;;;;;;;;;41.50;52.10;;;;;;4963403;28;20164;-73
2023/10/14 10:28:29;;;;;;;;;;;41.70;51.30;;;;;;4963862;28;20111;-71
2023/10/14 10:30:55;;;;;;;;;;;41.90;50.60;;;;;;4962209;28;19953;-71
2023/10/14 10:33:23;;;;;;;;;;;41.60;49.70;;;;;;4957496;28;19918;-71
2023/10/14 10:36:03;;;;;;;;;;;41.80;49.70;;;;;;4959635;28;19909;-74
2023/10/14 10:38:29;;;;;;;;;;;42.50;49.40;;;;;;4962751;28;20362;-73
2023/10/14 10:41:14;;;;;;;;;;;42.60;49.10;;;;;;4956524;28;19910;-73
2023/10/14 10:43:40;;;;;;;;;;;42.70;48.60;;;;;;4957975;28;19910;-72
2023/10/14 10:46:26;;;;;;;;;;;41.60;48.90;;;;;;4960265;28;19930;-72
2023/10/14 10:48:51;;;;;;;;;;;39.90;49.80;;;;;;4956556;28;20688;-71
2023/10/14 10:51:17;;;;;;;;;;;36.80;51.10;;;;;;4958746;28;20053;-72
2023/10/14 10:53:43;;;;;;;;;;;34.50;53.80;;;;;;4961356;28;19925;-73
2023/10/14 10:56:11;;;;;;;;;;;33.20;55.30;;;;;;4944345;28;20377;-74
2023/10/14 10:58:36;;;;;;;;;;;32.20;56.60;;;;;;4957166;28;19914;-73
2023/10/14 11:01:02;;;;;;;;;;;31.40;57.20;;;;;;4962659;28;19964;-73
2023/10/14 11:03:29;;;;;;;;;;;31.10;58.50;;;;;;4960680;28;19918;-72
2023/10/14 11:05:56;;;;;;;;;;;30.80;58.80;;;;;;4961210;28;19996;-72
2023/10/14 11:08:22;;;;;;;;;;;30.60;58.50;;;;;;4961939;28;19918;-72
2023/10/14 11:10:49;;;;;;;;;;;30.10;59.10;;;;;;4945859;28;19994;-72
2023/10/14 11:13:16;;;;;;;;;;;29.90;59.70;;;;;;4957180;28;19910;-71
2023/10/14 11:15:46;;;;;;;;;;;29.80;60.00;;;;;;4959952;28;20324;-71
2023/10/14 11:18:13;;;;;;;;;;;29.60;60.50;;;;;;4962147;28;19910;-86
2023/10/14 11:20:43;;;;;;;;;;;29.60;60.60;;;;;;4964283;28;20411;-83
2023/10/14 11:23:09;;;;;;;;;;;29.60;60.50;;;;;;4962194;28;20012;-88
2023/10/14 11:25:45;;;;;;;;;;;29.50;60.70;;;;;;4963932;28;20452;-83
2023/10/14 11:28:11;;;;;;;;;;;29.30;61.40;;;;;;4963194;28;19929;-82
2023/10/14 11:30:41;;;;;;;;;;;29.20;61.50;;;;;;4965040;28;19918;-86
2023/10/14 11:33:10;;;;;;;;;;;28.80;61.30;;;;;;4961317;28;19918;-84
2023/10/14 11:35:39;;;;;;;;;;;28.50;62.40;;;;;;4964021;28;19922;-86
2023/10/14 11:38:12;;;;;;;;;;;28.30;62.70;;;;;;4960321;28;19921;-85
2023/10/14 11:40:40;;;;;;;;;;;28.20;63.10;;;;;;4964194;28;19910;-87
2023/10/14 11:43:06;;;;;;;;;;;28.10;63.80;;;;;;4966507;28;19969;-88
2023/10/14 11:45:44;;;;;;;;;;;28.00;63.60;;;;;;4959008;28;20389;-84
2023/10/14 11:48:23;;;;;;;;;;;28.00;63.70;;;;;;4965470;28;20154;-87
2023/10/14 11:50:52;;;;;;;;;;;28.00;64.50;;;;;;4964998;28;20334;-87
2023/10/14 11:53:27;;;;;;;;;;;28.00;64.80;;;;;;4964070;28;19917;-87
2023/10/14 11:55:54;;;;;;;;;;;28.00;64.60;;;;;;4964251;28;19914;-86
2023/10/14 11:58:21;;;;;;;;;;;28.00;64.90;;;;;;4967360;28;20550;-85
2023/10/14 12:00:47;;;;;;;;;;;27.80;64.50;;;;;;4971877;28;19976;-81
2023/10/14 12:03:15;;;;;;;;;;;27.70;64.80;;;;;;4986383;28;19922;-82
2023/10/14 12:05:41;;;;;;;;;;;27.40;64.80;;;;;;4990529;28;19972;-84
2023/10/14 12:08:08;;;;;;;;;;;27.30;65.30;;;;;;4975932;28;19990;-82
2023/10/14 12:10:45;;;;;;;;;;;27.30;65.50;;;;;;4986352;28;19918;-83
2023/10/14 12:13:12;;;;;;;;;;;27.40;66.00;;;;;;4959941;28;19910;-70
2023/10/14 12:15:38;;;;;;;;;;;27.60;66.10;;;;;;4964498;28;19974;-70
2023/10/14 12:18:04;;;;;;;;;;;27.80;66.20;;;;;;4960145;28;19945;-71
2023/10/14 12:20:29;;;;;;;;;;;27.90;65.90;;;;;;4962939;28;20382;-70
2023/10/14 12:22:55;;;;;;;;;;;27.90;66.60;;;;;;4968512;28;19910;-70
2023/10/14 12:25:21;;;;;;;;;;;27.80;65.90;;;;;;4963013;28;19927;-68
2023/10/14 12:27:48;;;;;;;;;;;27.70;65.80;;;;;;4962001;28;20346;-68
2023/10/14 12:30:35;;;;;;;;;;;27.60;66.90;;;;;;4963186;28;20512;-69
2023/10/14 12:33:05;;;;;;;;;;;27.30;65.40;;;;;;4964585;28;19910;-69
2023/10/14 12:35:32;;;;;;;;;;;27.00;67.10;;;;;;4964120;28;20294;-70
2023/10/14 12:37:58;;;;;;;;;;;26.90;67.60;;;;;;4965333;28;19914;-70
2023/10/14 12:40:24;;;;;;;;;;;26.80;67.70;;;;;;4957645;28;19918;-70
2023/10/14 12:42:54;;;;;;;;;;;26.60;67.50;;;;;;4959407;28;19925;-69
2023/10/14 12:45:25;;;;;;;;;;;26.40;68.10;;;;;;4963157;28;21243;-70
2023/10/14 12:47:55;;;;;;;;;;;26.40;68.60;;;;;;4963540;28;20502;-68
2023/10/14 12:50:21;;;;;;;;;;;26.30;68.70;;;;;;4963040;28;19935;-68
2023/10/14 12:52:49;;;;;;;;;;;26.30;68.60;;;;;;4962059;28;19914;-69
2023/10/14 12:55:22;;;;;;;;;;;26.30;69.80;;;;;;4961193;28;19917;-69
2023/10/14 12:57:48;;;;;;;;;;;26.30;69.50;;;;;;4963453;28;19920;-70
2023/10/14 13:00:29;;;;;;;;;;;26.40;70.10;;;;;;4964284;28;20585;-69
2023/10/14 13:02:56;;;;;;;;;;;26.40;69.10;;;;;;4960894;28;19914;-67
2023/10/14 13:05:22;;;;;;;;;;;26.30;69.00;;;;;;4956502;28;20231;-68
2023/10/14 13:07:51;;;;;;;;;;;26.30;69.70;;;;;;4962384;28;20285;-69
2023/10/14 13:10:20;;;;;;;;;;;26.20;69.40;;;;;;4959265;28;20004;-68
2023/10/14 13:12:50;;;;;;;;;;;26.10;69.00;;;;;;4960538;28;19941;-70
2023/10/14 13:15:25;;;;;;;;;;;26.10;69.80;;;;;;4961156;28;20378;-69
2023/10/14 13:17:58;;;;;;;;;;;26.00;70.10;;;;;;4962076;28;19918;-68
2023/10/14 13:20:27;;;;;;;;;;;26.00;70.10;;;;;;4962697;28;19914;-69
2023/10/14 13:22:54;;;;;;;;;;;25.90;70.10;;;;;;4960461;28;19914;-70
2023/10/14 13:25:21;;;;;;;;;;;25.90;70.60;;;;;;4963174;28;19936;-69
2023/10/14 13:27:49;;;;;;;;;;;25.90;70.20;;;;;;4961697;28;19918;-69
2023/10/14 13:30:16;;;;;;;;;;;25.90;70.70;;;;;;4959463;28;19929;-66
2023/10/14 13:32:41;;;;;;;;;;;25.90;70.70;;;;;;4958038;28;19949;-72
2023/10/14 13:35:07;;;;;;;;;;;26.00;70.60;;;;;;4961725;28;20496;-71
2023/10/14 13:37:33;;;;;;;;;;;25.90;70.70;;;;;;4963434;28;20424;-71
2023/10/14 13:39:59;;;;;;;;;;;25.70;70.60;;;;;;4964116;28;19918;-71
2023/10/14 13:42:24;;;;;;;;;;;25.60;71.40;;;;;;4945688;28;19910;-71
2023/10/14 13:44:50;;;;;;;;;;;25.50;71.30;;;;;;4959906;28;19953;-71
2023/10/14 13:47:17;;;;;;;;;;;25.50;72.20;;;;;;4962718;28;19921;-71
2023/10/14 13:49:45;;;;;;;;;;;25.40;72.00;;;;;;4962862;28;19980;-71
2023/10/14 13:52:16;;;;;;;;;;;25.40;71.90;;;;;;4962408;28;19957;-72
2023/10/14 13:54:45;;;;;;;;;;;25.40;71.90;;;;;;4963853;28;19914;-71
2023/10/14 13:57:11;;;;;;;;;;;25.40;71.70;;;;;;4951470;28;19911;-71
2023/10/14 13:59:38;;;;;;;;;;;25.40;71.70;;;;;;4960786;28;19965;-71
2023/10/14 14:02:04;;;;;;;;;;;25.50;71.70;;;;;;4962019;28;20385;-70
2023/10/14 14:04:32;;;;;;;;;;;25.60;71.80;;;;;;4958992;28;20012;-71
2023/10/14 14:07:01;;;;;;;;;;;25.50;72.10;;;;;;4961571;28;20412;-68
2023/10/14 14:09:30;;;;;;;;;;;25.40;71.90;;;;;;4958345;28;19926;-70
2023/10/14 14:11:58;;;;;;;;;;;25.30;72.30;;;;;;4958289;28;19918;-70
2023/10/14 14:14:24;;;;;;;;;;;25.20;72.90;;;;;;4962474;28;19910;-71
2023/10/14 14:16:50;;;;;;;;;;;25.10;73.20;;;;;;4957360;28;19929;-71
2023/10/14 14:19:18;;;;;;;;;;;25.00;73.20;;;;;;4960888;28;20590;-71
2023/10/14 14:21:47;;;;;;;;;;;24.90;73.50;;;;;;4959942;28;19922;-71
2023/10/14 14:24:14;;;;;;;;;;;24.90;73.90;;;;;;4951901;28;19929;-71
2023/10/14 14:26:41;;;;;;;;;;;24.80;73.50;;;;;;4955209;28;20594;-69
2023/10/14 14:29:09;;;;;;;;;;;24.80;73.80;;;;;;4955240;28;20445;-70
2023/10/14 14:31:35;;;;;;;;;;;24.70;74.50;;;;;;4934679;28;20453;-70
2023/10/14 14:34:01;;;;;;;;;;;24.70;74.80;;;;;;4954124;28;19917;-71
2023/10/14 14:36:27;;;;;;;;;;;24.70;74.80;;;;;;4952255;28;19945;-70
2023/10/14 14:38:54;;;;;;;;;;;24.60;75.20;;;;;;4955270;28;19910;-70
2023/10/14 14:41:25;;;;;;;;;;;24.50;75.20;;;;;;4959301;28;19921;-70